createdAt,value
2018-09-11T00:01:57.272Z,2.57
2018-09-11T00:04:25.368Z,3.03
2018-09-11T00:06:53.461Z,3.30
2018-09-11T00:09:21.545Z,3.37
2018-09-11T00:11:49.641Z,3.00
2018-09-11T00:14:17.729Z,2.90
2018-09-11T00:16:45.844Z,2.80
2018-09-11T00:19:13.965Z,3.37
2018-09-11T00:21:42.040Z,3.47
2018-09-11T00:24:10.132Z,3.43
2018-09-11T00:26:38.212Z,4.00
2018-09-11T00:29:06.281Z,3.93
2018-09-11T00:31:34.596Z,3.97
2018-09-11T00:34:02.705Z,4.30
2018-09-11T00:36:30.836Z,3.97
2018-09-11T00:38:58.941Z,4.30
2018-09-11T00:41:27.025Z,5.03
2018-09-11T00:43:55.098Z,4.13
2018-09-11T00:46:23.157Z,4.00
2018-09-11T00:48:51.238Z,4.33
2018-09-11T00:51:19.328Z,4.10
2018-09-11T00:53:47.404Z,4.43
2018-09-11T00:56:15.499Z,4.70
2018-09-11T00:58:43.573Z,4.33
2018-09-11T01:01:11.647Z,4.70
2018-09-11T01:03:39.729Z,4.40
2018-09-11T01:06:07.788Z,4.90
2018-09-11T01:08:35.857Z,4.87
2018-09-11T01:11:03.918Z,6.80
2018-09-11T01:13:32.013Z,6.50
2018-09-11T01:16:00.421Z,6.17
2018-09-11T01:18:28.513Z,5.40
2018-09-11T01:20:56.582Z,5.93
2018-09-11T01:23:24.647Z,4.40
2018-09-11T01:25:52.725Z,5.23
2018-09-11T01:28:20.781Z,5.63
2018-09-11T01:30:48.873Z,5.03
2018-09-11T01:33:16.928Z,5.63
2018-09-11T01:35:45.005Z,5.37
2018-09-11T01:38:13.061Z,5.07
2018-09-11T01:40:41.133Z,6.00
2018-09-11T01:43:09.220Z,5.53
2018-09-11T01:45:37.301Z,5.23
2018-09-11T01:48:05.365Z,5.50
2018-09-11T01:50:33.469Z,5.33
2018-09-11T01:53:01.638Z,5.00
2018-09-11T01:55:29.773Z,5.53
2018-09-11T01:57:57.866Z,5.00
2018-09-11T02:00:25.932Z,4.70
2018-09-11T02:02:54.013Z,4.50
2018-09-11T02:05:22.076Z,4.57
2018-09-11T02:07:50.148Z,5.37
2018-09-11T02:10:18.333Z,4.83
2018-09-11T02:12:46.401Z,4.30
2018-09-11T02:15:14.480Z,4.73
2018-09-11T02:17:42.554Z,5.40
2018-09-11T02:20:10.596Z,5.20
2018-09-11T02:22:38.699Z,4.83
2018-09-11T02:25:06.793Z,5.00
2018-09-11T02:27:34.880Z,4.90
2018-09-11T02:30:02.957Z,5.27
2018-09-11T02:32:31.124Z,5.23
2018-09-11T02:34:59.231Z,5.07
2018-09-11T02:37:27.336Z,5.70
2018-09-11T02:39:55.440Z,5.33
2018-09-11T02:42:23.561Z,5.33
2018-09-11T02:44:51.649Z,5.13
2018-09-11T02:47:19.713Z,4.97
2018-09-11T02:49:47.856Z,4.33
2018-09-11T02:52:15.935Z,5.10
2018-09-11T02:54:44.021Z,4.70
2018-09-11T02:57:12.117Z,4.60
2018-09-11T02:59:40.245Z,4.83
2018-09-11T03:02:08.402Z,4.87
2018-09-11T03:04:36.656Z,5.30
2018-09-11T03:07:04.832Z,5.40
2018-09-11T03:09:33.085Z,5.00
2018-09-11T03:12:01.197Z,6.00
2018-09-11T03:14:29.332Z,5.40
2018-09-11T03:16:57.831Z,5.57
2018-09-11T03:19:25.957Z,5.83
2018-09-11T03:21:54.060Z,5.27
2018-09-11T03:24:22.133Z,5.60
2018-09-11T03:26:50.216Z,5.97
2018-09-11T03:29:18.307Z,6.57
2018-09-11T03:31:46.388Z,5.80
2018-09-11T03:34:14.458Z,5.40
2018-09-11T03:36:42.582Z,5.73
2018-09-11T03:39:11.201Z,6.07
2018-09-11T03:41:39.300Z,6.07
2018-09-11T03:44:07.379Z,5.30
2018-09-11T03:46:35.484Z,4.90
2018-09-11T03:49:03.561Z,5.33
2018-09-11T03:51:31.680Z,4.00
2018-09-11T03:53:59.784Z,5.37
2018-09-11T03:56:27.896Z,5.50
2018-09-11T03:58:55.969Z,6.00
2018-09-11T04:01:24.041Z,5.40
2018-09-11T04:03:52.105Z,5.70
2018-09-11T04:06:20.197Z,5.80
2018-09-11T04:08:48.266Z,5.60
2018-09-11T04:11:16.368Z,5.50
2018-09-11T04:13:44.497Z,4.97
2018-09-11T04:16:12.560Z,4.90
2018-09-11T04:18:40.624Z,5.80
2018-09-11T04:21:08.724Z,5.80
2018-09-11T04:23:36.800Z,6.67
2018-09-11T04:26:05.098Z,5.80
2018-09-11T04:28:33.245Z,6.13
2018-09-11T04:31:01.410Z,5.40
2018-09-11T04:33:29.584Z,6.60
2018-09-11T04:35:57.810Z,6.53
2018-09-11T04:38:25.891Z,6.60
2018-09-11T04:40:53.962Z,6.50
2018-09-11T04:43:22.066Z,6.17
2018-09-11T04:45:50.122Z,6.10
2018-09-11T04:48:18.184Z,5.70
2018-09-11T04:50:46.245Z,6.07
2018-09-11T04:53:14.332Z,6.13
2018-09-11T04:55:42.399Z,5.73
2018-09-11T04:58:10.488Z,6.00
2018-09-11T05:00:38.585Z,5.67
2018-09-11T05:03:06.697Z,5.57
2018-09-11T05:05:34.797Z,3.07
2018-09-11T05:08:02.961Z,5.83
2018-09-11T05:10:31.108Z,5.80
2018-09-11T05:12:59.275Z,6.23
2018-09-11T05:15:27.413Z,5.90
2018-09-11T05:17:55.555Z,5.83
2018-09-11T05:20:23.749Z,5.70
2018-09-11T05:22:51.842Z,5.60
2018-09-11T05:25:19.933Z,5.00
2018-09-11T05:27:48.021Z,5.50
2018-09-11T05:30:16.102Z,4.87
2018-09-11T05:32:44.189Z,5.73
2018-09-11T05:35:12.295Z,5.17
2018-09-11T05:37:40.369Z,5.20
2018-09-11T05:40:08.460Z,4.83
2018-09-11T05:42:36.536Z,4.07
2018-09-11T05:45:04.669Z,5.03
2018-09-11T05:47:32.796Z,4.07
2018-09-11T05:50:00.969Z,4.23
2018-09-11T05:52:29.176Z,4.67
2018-09-11T05:54:57.276Z,4.67
2018-09-11T05:57:25.436Z,4.40
2018-09-11T05:59:53.575Z,4.90
2018-09-11T06:02:21.688Z,4.63
2018-09-11T06:04:49.760Z,4.53
2018-09-11T06:07:17.841Z,4.70
2018-09-11T06:09:46.857Z,3.93
2018-09-11T06:12:14.943Z,4.33
2018-09-11T06:14:43.048Z,3.90
2018-09-11T06:17:11.138Z,4.97
2018-09-11T06:19:39.228Z,4.80
2018-09-11T06:22:07.325Z,5.80
2018-09-11T06:24:35.449Z,5.80
2018-09-11T06:27:03.573Z,4.87
2018-09-11T06:29:31.706Z,4.60
2018-09-11T06:31:59.851Z,4.70
2018-09-11T06:34:28.024Z,4.60
2018-09-11T06:36:56.224Z,4.60
2018-09-11T06:39:24.237Z,4.27
2018-09-11T06:41:52.325Z,3.13
2018-09-11T06:44:20.419Z,5.50
2018-09-11T06:46:48.618Z,5.93
2018-09-11T06:49:16.820Z,5.03
2018-09-11T06:51:44.897Z,5.60
2018-09-11T06:54:13.109Z,4.90
2018-09-11T06:56:41.310Z,4.67
2018-09-11T06:59:09.483Z,4.53
2018-09-11T07:01:37.605Z,5.03
2018-09-11T07:04:06.072Z,5.30
2018-09-11T07:06:34.280Z,5.40
2018-09-11T07:09:02.547Z,5.13
2018-09-11T07:11:30.775Z,5.00
2018-09-11T07:13:58.911Z,5.63
2018-09-11T07:16:27.076Z,5.40
2018-09-11T07:18:55.179Z,5.20
2018-09-11T07:21:23.348Z,3.60
2018-09-11T07:23:51.420Z,5.30
2018-09-11T07:26:19.507Z,4.67
2018-09-11T07:28:47.576Z,5.17
2018-09-11T07:31:15.642Z,4.80
2018-09-11T07:33:44.145Z,5.20
2018-09-11T07:36:12.284Z,5.17
2018-09-11T07:38:40.344Z,5.57
2018-09-11T07:41:08.936Z,5.93
2018-09-11T07:43:37.068Z,6.50
2018-09-11T07:46:11.585Z,6.90
2018-09-11T07:48:39.681Z,6.10
2018-09-11T07:51:07.753Z,6.03
2018-09-11T07:53:35.918Z,5.30
2018-09-11T07:56:04.040Z,6.40
2018-09-11T07:58:32.197Z,7.00
2018-09-11T08:01:00.347Z,6.70
2018-09-11T08:03:32.359Z,6.73
2018-09-11T08:06:00.510Z,7.03
2018-09-11T08:08:28.732Z,6.50
2018-09-11T08:10:56.908Z,7.10
2018-09-11T08:13:25.085Z,6.77
2018-09-11T08:15:53.169Z,5.90
2018-09-11T08:18:21.248Z,7.10
2018-09-11T08:20:49.356Z,7.23
2018-09-11T08:23:17.435Z,3.67
2018-09-11T08:25:45.509Z,6.30
2018-09-11T08:28:13.585Z,5.27
2018-09-11T08:30:41.765Z,6.93
2018-09-11T08:33:09.832Z,6.03
2018-09-11T08:35:37.940Z,6.63
2018-09-11T08:38:06.051Z,6.57
2018-09-11T08:40:34.229Z,5.87
2018-09-11T08:43:02.450Z,6.07
2018-09-11T08:45:30.598Z,6.27
2018-09-11T08:47:58.866Z,5.43
2018-09-11T08:50:26.990Z,5.70
2018-09-11T08:52:55.065Z,6.00
2018-09-11T08:55:23.149Z,5.77
2018-09-11T08:57:51.229Z,5.33
2018-09-11T09:00:19.344Z,5.70
2018-09-11T09:02:47.424Z,5.83
2018-09-11T09:05:15.520Z,4.10
2018-09-11T09:07:43.625Z,4.67
2018-09-11T09:10:11.785Z,4.43
2018-09-11T09:12:39.761Z,4.50
2018-09-11T09:15:07.820Z,4.80
2018-09-11T09:17:35.964Z,5.27
2018-09-11T09:20:04.093Z,4.37
2018-09-11T09:22:32.194Z,3.60
2018-09-11T09:25:00.411Z,5.37
2018-09-11T09:27:28.624Z,4.73
2018-09-11T09:29:56.680Z,4.20
2018-09-11T09:32:24.830Z,4.40
2018-09-11T09:34:52.910Z,4.40
2018-09-11T09:37:21.061Z,3.93
2018-09-11T09:39:49.161Z,4.20
2018-09-11T09:42:17.281Z,4.03
2018-09-11T09:44:45.345Z,4.27
2018-09-11T09:47:13.484Z,3.17
2018-09-11T09:49:41.568Z,4.20
2018-09-11T09:52:09.654Z,3.47
2018-09-11T09:54:37.736Z,3.77
2018-09-11T09:57:05.905Z,4.90
2018-09-11T09:59:34.026Z,4.23
2018-09-11T10:02:08.339Z,3.20
2018-09-11T10:04:36.428Z,3.57
2018-09-11T10:07:04.690Z,3.47
2018-09-11T10:09:32.885Z,3.20
2018-09-11T10:12:01.061Z,3.60
2018-09-11T10:14:29.225Z,2.80
2018-09-11T10:16:57.528Z,2.77
2018-09-11T10:19:25.608Z,3.77
2018-09-11T10:21:53.673Z,4.03
2018-09-11T10:24:21.780Z,3.53
2018-09-11T10:26:49.858Z,3.67
2018-09-11T10:29:18.014Z,3.90
2018-09-11T10:31:46.165Z,3.80
2018-09-11T10:34:14.233Z,3.80
2018-09-11T10:36:42.309Z,4.10
2018-09-11T10:39:10.384Z,3.90
2018-09-11T10:41:38.468Z,4.20
2018-09-11T10:44:06.689Z,3.77
2018-09-11T10:46:34.780Z,4.53
2018-09-11T10:49:02.893Z,3.93
2018-09-11T10:51:31.081Z,2.43
2018-09-11T10:53:59.428Z,3.70
2018-09-11T10:56:27.720Z,4.30
2018-09-11T10:58:55.808Z,4.00
2018-09-11T11:01:23.948Z,3.00
2018-09-11T11:03:52.185Z,4.00
2018-09-11T11:06:20.286Z,3.97
2018-09-11T11:08:48.370Z,3.53
2018-09-11T11:11:16.433Z,4.13
2018-09-11T11:13:44.531Z,4.10
2018-09-11T11:16:12.620Z,3.10
2018-09-11T11:18:40.677Z,3.60
2018-09-11T11:21:08.737Z,2.53
2018-09-11T11:23:36.828Z,3.73
2018-09-11T11:26:04.921Z,2.60
2018-09-11T11:28:33.151Z,3.17
2018-09-11T11:31:01.393Z,3.83
2018-09-11T11:33:29.597Z,3.93
2018-09-11T11:35:57.803Z,3.40
2018-09-11T11:38:25.832Z,3.33
2018-09-11T11:40:53.904Z,3.30
2018-09-11T11:43:21.989Z,3.50
2018-09-11T11:45:50.612Z,3.83
2018-09-11T11:48:18.709Z,3.40
2018-09-11T11:50:46.772Z,3.40
2018-09-11T11:53:14.937Z,3.07
2018-09-11T11:55:43.049Z,3.67
2018-09-11T11:58:11.153Z,3.33
2018-09-11T12:00:39.225Z,2.97
2018-09-11T12:03:07.940Z,3.80
2018-09-11T12:05:36.025Z,3.90
2018-09-11T12:08:04.285Z,3.60
2018-09-11T12:10:32.397Z,2.80
2018-09-11T12:13:00.729Z,3.63
2018-09-11T12:15:28.849Z,3.57
2018-09-11T12:17:57.041Z,3.87
2018-09-11T12:20:25.137Z,3.53
2018-09-11T12:22:53.224Z,3.57
2018-09-11T12:25:21.429Z,3.87
2018-09-11T12:27:49.484Z,3.83
2018-09-11T12:30:17.600Z,3.13
2018-09-11T12:32:45.673Z,3.40
2018-09-11T12:35:13.766Z,3.00
2018-09-11T12:37:41.812Z,3.37
2018-09-11T12:40:09.922Z,3.83
2018-09-11T12:42:37.998Z,4.20
2018-09-11T12:45:06.148Z,3.70
2018-09-11T12:47:34.667Z,3.57
2018-09-11T12:50:02.419Z,4.00
2018-09-11T12:52:30.552Z,3.80
2018-09-11T12:54:58.642Z,3.50
2018-09-11T12:57:26.745Z,4.03
2018-09-11T12:59:54.898Z,4.10
2018-09-11T13:02:23.057Z,2.70
2018-09-11T13:04:51.147Z,2.80
2018-09-11T13:07:19.225Z,3.70
2018-09-11T13:09:47.288Z,4.47
2018-09-11T13:12:15.424Z,4.00
2018-09-11T13:14:43.534Z,3.90
2018-09-11T13:17:11.616Z,4.00
2018-09-11T13:19:39.731Z,3.93
2018-09-11T13:22:07.836Z,5.23
2018-09-11T13:24:35.930Z,3.97
2018-09-11T13:27:04.046Z,4.20
2018-09-11T13:29:32.144Z,3.77
2018-09-11T13:32:00.286Z,3.30
2018-09-11T13:34:28.546Z,4.40
2018-09-11T13:36:56.660Z,3.97
2018-09-11T13:39:24.732Z,4.47
2018-09-11T13:41:52.826Z,2.50
2018-09-11T13:44:20.924Z,3.30
2018-09-11T13:46:49.049Z,3.13
2018-09-11T13:49:17.145Z,4.20
2018-09-11T13:51:45.351Z,3.70
2018-09-11T13:54:13.409Z,4.07
2018-09-11T13:56:41.482Z,4.57
2018-09-11T13:59:09.569Z,3.80
2018-09-11T14:01:37.629Z,4.13
2018-09-11T14:04:05.730Z,3.17
2018-09-11T14:06:33.864Z,2.70
2018-09-11T14:09:02.101Z,3.77
2018-09-11T14:11:30.257Z,4.53
2018-09-11T14:13:58.390Z,4.63
2018-09-11T14:16:26.483Z,3.63
2018-09-11T14:18:54.578Z,5.17
2018-09-11T14:21:22.765Z,5.23
2018-09-11T14:23:50.789Z,3.83
2018-09-11T14:26:18.907Z,4.77
2018-09-11T14:28:46.989Z,6.43
2018-09-11T14:31:15.099Z,6.97
2018-09-11T14:33:43.212Z,6.77
2018-09-11T14:36:11.289Z,5.07
2018-09-11T14:38:39.600Z,7.00
2018-09-11T14:41:07.724Z,6.53
2018-09-11T14:43:35.833Z,7.73
2018-09-11T14:46:04.026Z,6.60
2018-09-11T14:48:32.277Z,3.20
2018-09-11T14:51:00.449Z,6.80
2018-09-11T14:53:28.658Z,4.90
2018-09-11T14:55:56.774Z,5.93
2018-09-11T14:58:24.865Z,5.40
2018-09-11T15:00:52.925Z,5.90
2018-09-11T15:03:21.052Z,3.70
2018-09-11T15:05:49.149Z,6.23
2018-09-11T15:08:17.232Z,7.07
2018-09-11T15:10:45.296Z,4.13
2018-09-11T15:13:13.362Z,6.00
2018-09-11T15:15:41.464Z,7.83
2018-09-11T15:18:09.546Z,9.80
2018-09-11T15:20:37.632Z,9.47
2018-09-11T15:23:05.788Z,10.20
2018-09-11T15:25:33.905Z,5.57
2018-09-11T15:28:02.053Z,3.73
2018-09-11T15:30:30.188Z,4.23
2018-09-11T15:32:58.411Z,8.00
2018-09-11T15:35:26.616Z,12.83
2018-09-11T15:37:54.714Z,8.73
2018-09-11T15:40:22.793Z,15.43
2018-09-11T15:42:50.853Z,18.43
2018-09-11T15:45:18.933Z,18.10
2018-09-11T15:47:47.010Z,24.07
2018-09-11T15:50:15.081Z,25.77
2018-09-11T15:52:43.165Z,24.30
2018-09-11T15:55:11.253Z,25.67
2018-09-11T15:57:39.365Z,13.97
2018-09-11T16:00:07.570Z,22.60
2018-09-11T16:02:35.677Z,22.63
2018-09-11T16:05:04.069Z,22.40
2018-09-11T16:07:32.226Z,5.93
2018-09-11T16:10:00.393Z,23.07
2018-09-11T16:12:28.618Z,17.07
2018-09-11T16:14:56.819Z,21.50
2018-09-11T16:17:24.908Z,17.67
2018-09-11T16:19:52.983Z,16.73
2018-09-11T16:22:21.108Z,9.37
2018-09-11T16:24:49.169Z,17.63
2018-09-11T16:27:17.240Z,10.70
2018-09-11T16:29:45.378Z,18.70
2018-09-11T16:32:13.376Z,6.23
2018-09-11T16:34:41.471Z,11.07
2018-09-11T16:37:09.560Z,13.67
2018-09-11T16:39:37.667Z,14.00
2018-09-11T16:42:05.957Z,11.10
2018-09-11T16:44:34.202Z,9.63
2018-09-11T16:47:02.313Z,10.00
2018-09-11T16:49:30.597Z,9.37
2018-09-11T16:51:58.765Z,8.63
2018-09-11T16:54:26.914Z,7.63
2018-09-11T16:56:54.980Z,7.83
2018-09-11T16:59:23.086Z,6.20
2018-09-11T17:01:51.165Z,6.57
2018-09-11T17:04:19.224Z,6.73
2018-09-11T17:06:47.329Z,7.03
2018-09-11T17:09:15.395Z,6.70
2018-09-11T17:11:43.461Z,7.30
2018-09-11T17:14:11.551Z,6.77
2018-09-11T17:16:39.621Z,6.10
2018-09-11T17:19:07.713Z,7.03
2018-09-11T17:21:35.792Z,6.57
2018-09-11T17:24:03.926Z,6.70
2018-09-11T17:26:32.048Z,6.20
2018-09-11T17:29:00.291Z,6.33
2018-09-11T17:31:28.481Z,6.27
2018-09-11T17:33:56.572Z,6.47
2018-09-11T17:36:24.661Z,6.67
2018-09-11T17:38:52.941Z,6.93
2018-09-11T17:41:21.009Z,7.63
2018-09-11T17:43:49.085Z,6.60
2018-09-11T17:46:17.252Z,7.83
2018-09-11T17:48:45.431Z,7.43
2018-09-11T17:51:13.433Z,6.50
2018-09-11T17:53:41.520Z,6.80
2018-09-11T17:56:09.590Z,7.73
2018-09-11T17:58:37.661Z,6.63
2018-09-11T18:01:05.864Z,6.93
2018-09-11T18:03:33.948Z,7.57
2018-09-11T18:06:02.074Z,6.27
2018-09-11T18:08:30.248Z,7.20
2018-09-11T18:10:58.321Z,7.50
2018-09-11T18:13:26.423Z,6.37
2018-09-11T18:15:54.500Z,7.73
2018-09-11T18:18:22.592Z,8.47
2018-09-11T18:20:50.658Z,7.53
2018-09-11T18:23:18.726Z,7.87
2018-09-11T18:25:46.912Z,7.90
2018-09-11T18:28:15.043Z,5.70
2018-09-11T18:30:43.088Z,7.47
2018-09-11T18:33:11.148Z,8.73
2018-09-11T18:35:39.292Z,8.40
2018-09-11T18:38:07.388Z,7.23
2018-09-11T18:40:35.443Z,9.97
2018-09-11T18:43:03.560Z,9.67
2018-09-11T18:45:31.658Z,9.60
2018-09-11T18:47:59.774Z,9.80
2018-09-11T18:50:27.885Z,9.47
2018-09-11T18:52:55.947Z,8.07
2018-09-11T18:55:24.044Z,8.97
2018-09-11T18:57:52.169Z,9.03
2018-09-11T19:00:24.458Z,7.23
2018-09-11T19:02:52.516Z,9.17
2018-09-11T19:05:20.589Z,7.70
2018-09-11T19:07:48.637Z,7.23
2018-09-11T19:10:16.732Z,9.07
2018-09-11T19:12:44.855Z,9.17
2018-09-11T19:15:13.076Z,7.90
2018-09-11T19:17:41.181Z,8.43
2018-09-11T19:20:09.299Z,7.63
2018-09-11T19:22:37.333Z,8.67
2018-09-11T19:25:05.929Z,8.87
2018-09-11T19:27:34.080Z,8.67
2018-09-11T19:30:02.201Z,8.13
2018-09-11T19:32:30.433Z,10.13
2018-09-11T19:34:58.556Z,8.30
2018-09-11T19:37:26.724Z,5.30
2018-09-11T19:39:54.773Z,9.07
2018-09-11T19:42:22.920Z,7.17
2018-09-11T19:44:50.941Z,7.37
2018-09-11T19:47:19.090Z,8.13
2018-09-11T19:49:47.161Z,8.00
2018-09-11T19:52:15.229Z,8.13
2018-09-11T19:54:43.364Z,8.57
2018-09-11T19:57:11.453Z,6.77
2018-09-11T19:59:39.581Z,6.53
2018-09-11T20:02:07.681Z,7.27
2018-09-11T20:04:35.753Z,8.43
2018-09-11T20:07:03.852Z,7.60
2018-09-11T20:09:31.949Z,5.83
2018-09-11T20:12:00.056Z,7.37
2018-09-11T20:14:28.170Z,7.17
2018-09-11T20:16:56.240Z,7.30
2018-09-11T20:19:24.429Z,7.57
2018-09-11T20:21:52.572Z,6.50
2018-09-11T20:24:20.659Z,7.30
2018-09-11T20:26:48.833Z,6.60
2018-09-11T20:29:16.948Z,4.97
2018-09-11T20:31:45.051Z,6.47
2018-09-11T20:34:13.137Z,6.17
2018-09-11T20:36:41.236Z,4.40
2018-09-11T20:39:10.522Z,5.30
2018-09-11T20:41:38.625Z,5.23
2018-09-11T20:44:07.241Z,4.60
2018-09-11T20:46:35.314Z,4.50
2018-09-11T20:49:03.436Z,4.37
2018-09-11T20:51:31.529Z,4.43
2018-09-11T20:53:59.671Z,3.60
2018-09-11T20:56:27.737Z,4.60
2018-09-11T20:58:55.805Z,3.70
2018-09-11T21:01:23.920Z,4.10
2018-09-11T21:03:51.997Z,3.93
2018-09-11T21:06:20.093Z,4.10
2018-09-11T21:08:48.153Z,3.80
2018-09-11T21:11:16.280Z,4.03
2018-09-11T21:13:44.688Z,3.47
2018-09-11T21:16:12.792Z,3.63
2018-09-11T21:18:47.684Z,3.70
2018-09-11T21:21:15.784Z,3.97
2018-09-11T21:23:43.869Z,3.57
2018-09-11T21:26:11.950Z,4.50
2018-09-11T21:28:40.040Z,3.80
2018-09-11T21:31:08.226Z,4.57
2018-09-11T21:33:36.308Z,4.40
2018-09-11T21:36:04.377Z,4.70
2018-09-11T21:38:32.464Z,4.40
2018-09-11T21:41:00.622Z,4.60
2018-09-11T21:43:28.754Z,4.83
2018-09-11T21:45:56.837Z,4.87
2018-09-11T21:48:24.917Z,4.70
2018-09-11T21:50:52.986Z,5.13
2018-09-11T21:53:21.057Z,4.97
2018-09-11T21:55:49.131Z,5.03
2018-09-11T21:58:17.240Z,5.17
2018-09-11T22:00:50.646Z,5.40
2018-09-11T22:03:18.705Z,4.83
2018-09-11T22:05:46.868Z,4.77
2018-09-11T22:08:14.934Z,4.73
2018-09-11T22:10:43.037Z,5.17
2018-09-11T22:13:11.194Z,5.50
2018-09-11T22:15:39.288Z,5.30
2018-09-11T22:18:07.439Z,4.57
2018-09-11T22:20:35.527Z,4.37
2018-09-11T22:23:03.577Z,3.97
2018-09-11T22:25:31.669Z,4.80
2018-09-11T22:27:59.778Z,4.10
2018-09-11T22:30:27.865Z,4.23
2018-09-11T22:32:56.014Z,5.00
2018-09-11T22:35:24.196Z,4.10
2018-09-11T22:37:52.281Z,4.37
2018-09-11T22:40:20.380Z,4.40
2018-09-11T22:42:48.460Z,4.70
2018-09-11T22:45:16.544Z,4.57
2018-09-11T22:47:44.625Z,4.80
2018-09-11T22:50:12.696Z,5.27
2018-09-11T22:52:40.772Z,4.20
2018-09-11T22:55:08.864Z,4.60
2018-09-11T22:57:36.937Z,5.57
2018-09-11T23:00:05.050Z,5.10
2018-09-11T23:02:33.268Z,5.40
2018-09-11T23:05:01.362Z,5.33
2018-09-11T23:07:29.445Z,5.13
2018-09-11T23:09:57.710Z,5.40
2018-09-11T23:12:25.789Z,4.97
2018-09-11T23:14:53.873Z,5.20
2018-09-11T23:17:21.949Z,5.70
2018-09-11T23:19:50.017Z,5.63
2018-09-11T23:22:18.093Z,5.83
2018-09-11T23:24:46.161Z,4.63
2018-09-11T23:27:14.233Z,5.33
2018-09-11T23:29:42.301Z,5.13
2018-09-11T23:32:10.377Z,5.87
2018-09-11T23:34:38.433Z,3.10
2018-09-11T23:37:06.504Z,5.53
2018-09-11T23:39:34.630Z,3.80
2018-09-11T23:42:02.701Z,4.23
2018-09-11T23:44:30.829Z,3.27
2018-09-11T23:46:58.961Z,4.30
2018-09-11T23:49:27.059Z,4.90
2018-09-11T23:51:55.133Z,3.03
2018-09-11T23:54:23.239Z,4.67
2018-09-11T23:56:51.326Z,4.67
2018-09-11T23:59:19.424Z,3.23
